sensor_id;sensor_type;location;lat;lon;timestamp;P1;durP1;ratioP1;P2;durP2;ratioP2
23260;SDS011;11799;47.740;-3.390;2023-04-25T00:01:15;12.93;;;3.22;;
23260;SDS011;11799;47.740;-3.390;2023-04-25T00:03:40;12.85;;;3.80;;
23260;SDS011;11799;47.740;-3.390;2023-04-25T00:06:06;9.73;;;3.42;;
23260;SDS011;11799;47.740;-3.390;2023-04-25T00:08:32;8.68;;;3.15;;
23260;SDS011;11799;47.740;-3.390;2023-04-25T00:10:58;10.82;;;4.20;;
23260;SDS011;11799;47.740;-3.390;2023-04-25T00:13:25;6.95;;;3.13;;
23260;SDS011;11799;47.740;-3.390;2023-04-25T00:15:51;12.43;;;3.75;;
23260;SDS011;11799;47.740;-3.390;2023-04-25T00:18:21;10.95;;;3.10;;
23260;SDS011;11799;47.740;-3.390;2023-04-25T00:20:47;15.00;;;3.70;;
23260;SDS011;11799;47.740;-3.390;2023-04-25T00:23:13;10.65;;;3.33;;
23260;SDS011;11799;47.740;-3.390;2023-04-25T00:25:46;13.32;;;3.58;;
23260;SDS011;11799;47.740;-3.390;2023-04-25T00:28:13;9.23;;;3.78;;
23260;SDS011;11799;47.740;-3.390;2023-04-25T00:30:39;11.82;;;3.75;;
23260;SDS011;11799;47.740;-3.390;2023-04-25T00:33:05;10.40;;;4.40;;
23260;SDS011;11799;47.740;-3.390;2023-04-25T00:35:32;13.25;;;3.90;;
23260;SDS011;11799;47.740;-3.390;2023-04-25T00:37:57;11.40;;;4.10;;
23260;SDS011;11799;47.740;-3.390;2023-04-25T00:40:23;18.35;;;3.67;;
23260;SDS011;11799;47.740;-3.390;2023-04-25T00:42:49;12.07;;;3.47;;
23260;SDS011;11799;47.740;-3.390;2023-04-25T00:45:14;11.90;;;3.65;;
23260;SDS011;11799;47.740;-3.390;2023-04-25T00:47:41;12.57;;;3.17;;
23260;SDS011;11799;47.740;-3.390;2023-04-25T00:50:07;12.57;;;3.67;;
23260;SDS011;11799;47.740;-3.390;2023-04-25T00:52:34;10.38;;;3.30;;
23260;SDS011;11799;47.740;-3.390;2023-04-25T00:55:00;10.15;;;3.42;;
23260;SDS011;11799;47.740;-3.390;2023-04-25T00:57:26;11.68;;;3.97;;
23260;SDS011;11799;47.740;-3.390;2023-04-25T00:59:52;11.00;;;3.53;;
23260;SDS011;11799;47.740;-3.390;2023-04-25T01:02:18;11.05;;;3.38;;
23260;SDS011;11799;47.740;-3.390;2023-04-25T01:04:45;13.35;;;3.90;;
23260;SDS011;11799;47.740;-3.390;2023-04-25T01:07:12;8.30;;;3.25;;
23260;SDS011;11799;47.740;-3.390;2023-04-25T01:09:38;14.60;;;3.50;;
23260;SDS011;11799;47.740;-3.390;2023-04-25T01:12:04;8.25;;;3.20;;
23260;SDS011;11799;47.740;-3.390;2023-04-25T01:14:30;9.68;;;3.30;;
23260;SDS011;11799;47.740;-3.390;2023-04-25T01:16:56;11.48;;;3.50;;
23260;SDS011;11799;47.740;-3.390;2023-04-25T01:19:22;13.10;;;3.90;;
23260;SDS011;11799;47.740;-3.390;2023-04-25T01:21:49;10.48;;;3.58;;
23260;SDS011;11799;47.740;-3.390;2023-04-25T01:24:15;7.90;;;3.45;;
23260;SDS011;11799;47.740;-3.390;2023-04-25T01:26:41;9.18;;;3.38;;
23260;SDS011;11799;47.740;-3.390;2023-04-25T01:29:19;8.32;;;3.80;;
23260;SDS011;11799;47.740;-3.390;2023-04-25T01:31:46;7.18;;;3.33;;
23260;SDS011;11799;47.740;-3.390;2023-04-25T01:34:12;12.70;;;3.65;;
23260;SDS011;11799;47.740;-3.390;2023-04-25T01:36:38;8.90;;;3.58;;
23260;SDS011;11799;47.740;-3.390;2023-04-25T01:39:05;8.80;;;3.88;;
23260;SDS011;11799;47.740;-3.390;2023-04-25T01:41:31;11.38;;;4.00;;
23260;SDS011;11799;47.740;-3.390;2023-04-25T01:43:57;14.07;;;3.72;;
23260;SDS011;11799;47.740;-3.390;2023-04-25T01:46:23;11.98;;;3.90;;
23260;SDS011;11799;47.740;-3.390;2023-04-25T01:48:49;5.75;;;3.35;;
23260;SDS011;11799;47.740;-3.390;2023-04-25T01:51:14;8.90;;;3.35;;
23260;SDS011;11799;47.740;-3.390;2023-04-25T01:53:41;8.90;;;3.58;;
23260;SDS011;11799;47.740;-3.390;2023-04-25T01:56:08;10.48;;;3.42;;
23260;SDS011;11799;47.740;-3.390;2023-04-25T01:58:34;9.50;;;3.97;;
23260;SDS011;11799;47.740;-3.390;2023-04-25T02:01:05;8.88;;;3.67;;
23260;SDS011;11799;47.740;-3.390;2023-04-25T02:03:38;10.15;;;3.78;;
23260;SDS011;11799;47.740;-3.390;2023-04-25T02:06:09;9.55;;;3.95;;
23260;SDS011;11799;47.740;-3.390;2023-04-25T02:08:38;9.27;;;3.80;;
23260;SDS011;11799;47.740;-3.390;2023-04-25T02:11:03;10.32;;;4.05;;
23260;SDS011;11799;47.740;-3.390;2023-04-25T02:13:36;11.88;;;4.15;;
23260;SDS011;11799;47.740;-3.390;2023-04-25T02:16:12;9.65;;;3.83;;
23260;SDS011;11799;47.740;-3.390;2023-04-25T02:18:38;10.30;;;4.00;;
23260;SDS011;11799;47.740;-3.390;2023-04-25T02:21:05;7.10;;;3.55;;
23260;SDS011;11799;47.740;-3.390;2023-04-25T02:23:31;13.18;;;4.00;;
23260;SDS011;11799;47.740;-3.390;2023-04-25T02:25:58;10.93;;;3.63;;
23260;SDS011;11799;47.740;-3.390;2023-04-25T02:28:24;11.40;;;4.43;;
23260;SDS011;11799;47.740;-3.390;2023-04-25T02:30:51;10.93;;;3.78;;
23260;SDS011;11799;47.740;-3.390;2023-04-25T02:33:17;11.15;;;4.43;;
23260;SDS011;11799;47.740;-3.390;2023-04-25T02:35:42;10.32;;;3.97;;
23260;SDS011;11799;47.740;-3.390;2023-04-25T02:38:08;11.00;;;4.65;;
23260;SDS011;11799;47.740;-3.390;2023-04-25T02:40:34;12.20;;;4.22;;
23260;SDS011;11799;47.740;-3.390;2023-04-25T02:42:59;9.25;;;3.95;;
23260;SDS011;11799;47.740;-3.390;2023-04-25T02:45:25;7.90;;;4.05;;
23260;SDS011;11799;47.740;-3.390;2023-04-25T02:47:51;10.50;;;4.45;;
23260;SDS011;11799;47.740;-3.390;2023-04-25T02:50:18;13.07;;;4.20;;
23260;SDS011;11799;47.740;-3.390;2023-04-25T02:52:43;10.30;;;4.20;;
23260;SDS011;11799;47.740;-3.390;2023-04-25T02:55:14;11.27;;;4.38;;
23260;SDS011;11799;47.740;-3.390;2023-04-25T02:57:40;8.43;;;3.97;;
23260;SDS011;11799;47.740;-3.390;2023-04-25T03:00:08;16.98;;;5.07;;
23260;SDS011;11799;47.740;-3.390;2023-04-25T03:02:34;11.68;;;4.10;;
23260;SDS011;11799;47.740;-3.390;2023-04-25T03:04:59;7.68;;;4.20;;
23260;SDS011;11799;47.740;-3.390;2023-04-25T03:07:26;9.50;;;4.20;;
23260;SDS011;11799;47.740;-3.390;2023-04-25T03:09:51;9.75;;;3.75;;
23260;SDS011;11799;47.740;-3.390;2023-04-25T03:12:17;8.43;;;3.58;;
23260;SDS011;11799;47.740;-3.390;2023-04-25T03:14:42;14.30;;;5.07;;
23260;SDS011;11799;47.740;-3.390;2023-04-25T03:17:08;8.82;;;4.70;;
23260;SDS011;11799;47.740;-3.390;2023-04-25T03:19:34;6.47;;;3.95;;
23260;SDS011;11799;47.740;-3.390;2023-04-25T03:22:00;10.55;;;4.70;;
23260;SDS011;11799;47.740;-3.390;2023-04-25T03:24:25;9.77;;;4.43;;
23260;SDS011;11799;47.740;-3.390;2023-04-25T03:26:52;11.30;;;4.55;;
23260;SDS011;11799;47.740;-3.390;2023-04-25T03:29:17;10.82;;;4.40;;
23260;SDS011;11799;47.740;-3.390;2023-04-25T03:31:43;14.93;;;4.80;;
23260;SDS011;11799;47.740;-3.390;2023-04-25T03:34:09;16.25;;;5.30;;
23260;SDS011;11799;47.740;-3.390;2023-04-25T03:36:35;10.63;;;4.75;;
23260;SDS011;11799;47.740;-3.390;2023-04-25T03:39:00;6.63;;;4.47;;
23260;SDS011;11799;47.740;-3.390;2023-04-25T03:41:28;13.10;;;4.93;;
23260;SDS011;11799;47.740;-3.390;2023-04-25T03:44:00;12.65;;;4.65;;
23260;SDS011;11799;47.740;-3.390;2023-04-25T03:46:26;14.93;;;5.18;;
23260;SDS011;11799;47.740;-3.390;2023-04-25T03:48:51;9.90;;;4.53;;
23260;SDS011;11799;47.740;-3.390;2023-04-25T03:51:21;13.10;;;4.47;;
23260;SDS011;11799;47.740;-3.390;2023-04-25T03:53:47;13.25;;;5.18;;
23260;SDS011;11799;47.740;-3.390;2023-04-25T03:56:19;9.63;;;5.43;;
23260;SDS011;11799;47.740;-3.390;2023-04-25T03:58:49;16.52;;;5.95;;
23260;SDS011;11799;47.740;-3.390;2023-04-25T04:01:17;7.88;;;4.10;;
23260;SDS011;11799;47.740;-3.390;2023-04-25T04:03:43;9.73;;;5.10;;
23260;SDS011;11799;47.740;-3.390;2023-04-25T04:06:08;12.75;;;4.70;;
23260;SDS011;11799;47.740;-3.390;2023-04-25T04:08:39;9.05;;;5.07;;
23260;SDS011;11799;47.740;-3.390;2023-04-25T04:11:04;12.45;;;4.60;;
23260;SDS011;11799;47.740;-3.390;2023-04-25T04:13:31;10.93;;;4.22;;
23260;SDS011;11799;47.740;-3.390;2023-04-25T04:15:57;10.90;;;4.80;;
23260;SDS011;11799;47.740;-3.390;2023-04-25T04:18:23;10.73;;;4.07;;
23260;SDS011;11799;47.740;-3.390;2023-04-25T04:20:49;14.82;;;4.65;;
23260;SDS011;11799;47.740;-3.390;2023-04-25T04:23:16;10.02;;;4.05;;
23260;SDS011;11799;47.740;-3.390;2023-04-25T04:25:41;7.68;;;3.75;;
23260;SDS011;11799;47.740;-3.390;2023-04-25T04:28:20;13.07;;;3.97;;
23260;SDS011;11799;47.740;-3.390;2023-04-25T04:31:19;10.60;;;4.03;;
23260;SDS011;11799;47.740;-3.390;2023-04-25T04:33:46;10.80;;;4.45;;
23260;SDS011;11799;47.740;-3.390;2023-04-25T04:36:13;6.30;;;3.83;;
23260;SDS011;11799;47.740;-3.390;2023-04-25T04:38:39;9.48;;;3.90;;
23260;SDS011;11799;47.740;-3.390;2023-04-25T04:41:15;7.38;;;4.35;;
23260;SDS011;11799;47.740;-3.390;2023-04-25T04:43:52;9.15;;;4.10;;
23260;SDS011;11799;47.740;-3.390;2023-04-25T04:46:41;14.15;;;4.38;;
23260;SDS011;11799;47.740;-3.390;2023-04-25T04:49:45;14.40;;;4.25;;
23260;SDS011;11799;47.740;-3.390;2023-04-25T04:52:29;12.60;;;4.30;;
23260;SDS011;11799;47.740;-3.390;2023-04-25T04:55:21;9.38;;;4.05;;
23260;SDS011;11799;47.740;-3.390;2023-04-25T04:58:16;11.05;;;4.20;;
23260;SDS011;11799;47.740;-3.390;2023-04-25T05:01:01;11.65;;;4.53;;
23260;SDS011;11799;47.740;-3.390;2023-04-25T05:03:32;8.60;;;3.97;;
23260;SDS011;11799;47.740;-3.390;2023-04-25T05:06:10;9.90;;;4.40;;
23260;SDS011;11799;47.740;-3.390;2023-04-25T05:09:10;5.78;;;3.70;;
23260;SDS011;11799;47.740;-3.390;2023-04-25T05:12:02;12.20;;;4.00;;
23260;SDS011;11799;47.740;-3.390;2023-04-25T05:14:46;12.65;;;4.10;;
23260;SDS011;11799;47.740;-3.390;2023-04-25T05:17:36;12.00;;;4.05;;
23260;SDS011;11799;47.740;-3.390;2023-04-25T05:20:20;9.70;;;3.63;;
23260;SDS011;11799;47.740;-3.390;2023-04-25T05:22:48;9.80;;;4.22;;
23260;SDS011;11799;47.740;-3.390;2023-04-25T05:25:34;7.00;;;3.92;;
23260;SDS011;11799;47.740;-3.390;2023-04-25T05:28:13;6.57;;;3.90;;
23260;SDS011;11799;47.740;-3.390;2023-04-25T05:30:57;10.07;;;4.28;;
23260;SDS011;11799;47.740;-3.390;2023-04-25T05:36:03;14.43;;;3.78;;
23260;SDS011;11799;47.740;-3.390;2023-04-25T05:38:28;11.00;;;4.30;;
23260;SDS011;11799;47.740;-3.390;2023-04-25T05:41:18;6.28;;;3.70;;
23260;SDS011;11799;47.740;-3.390;2023-04-25T05:43:53;7.93;;;3.92;;
23260;SDS011;11799;47.740;-3.390;2023-04-25T05:46:30;10.88;;;4.20;;
23260;SDS011;11799;47.740;-3.390;2023-04-25T05:49:21;10.27;;;3.72;;
23260;SDS011;11799;47.740;-3.390;2023-04-25T05:52:02;9.90;;;3.88;;
23260;SDS011;11799;47.740;-3.390;2023-04-25T05:54:33;8.02;;;3.67;;
23260;SDS011;11799;47.740;-3.390;2023-04-25T05:56:59;9.52;;;3.83;;
23260;SDS011;11799;47.740;-3.390;2023-04-25T05:59:24;10.88;;;4.30;;
23260;SDS011;11799;47.740;-3.390;2023-04-25T06:01:50;9.07;;;3.63;;
23260;SDS011;11799;47.740;-3.390;2023-04-25T06:04:17;9.90;;;3.92;;
23260;SDS011;11799;47.740;-3.390;2023-04-25T06:06:43;13.80;;;4.93;;
23260;SDS011;11799;47.740;-3.390;2023-04-25T06:09:08;11.02;;;4.13;;
23260;SDS011;11799;47.740;-3.390;2023-04-25T06:11:34;7.93;;;4.00;;
23260;SDS011;11799;47.740;-3.390;2023-04-25T06:14:00;7.97;;;3.83;;
23260;SDS011;11799;47.740;-3.390;2023-04-25T06:16:26;8.82;;;4.07;;
23260;SDS011;11799;47.740;-3.390;2023-04-25T06:18:52;8.52;;;3.42;;
23260;SDS011;11799;47.740;-3.390;2023-04-25T06:21:17;11.93;;;3.83;;
23260;SDS011;11799;47.740;-3.390;2023-04-25T06:23:43;7.07;;;3.70;;
23260;SDS011;11799;47.740;-3.390;2023-04-25T06:26:11;9.18;;;3.50;;
23260;SDS011;11799;47.740;-3.390;2023-04-25T06:28:39;8.75;;;3.67;;
23260;SDS011;11799;47.740;-3.390;2023-04-25T06:31:05;7.18;;;3.90;;
23260;SDS011;11799;47.740;-3.390;2023-04-25T06:33:31;7.53;;;3.60;;
23260;SDS011;11799;47.740;-3.390;2023-04-25T06:35:57;7.18;;;3.60;;
23260;SDS011;11799;47.740;-3.390;2023-04-25T06:38:25;8.18;;;4.40;;
23260;SDS011;11799;47.740;-3.390;2023-04-25T06:40:52;7.70;;;4.03;;
23260;SDS011;11799;47.740;-3.390;2023-04-25T06:43:18;13.07;;;4.10;;
23260;SDS011;11799;47.740;-3.390;2023-04-25T06:46:08;9.02;;;4.57;;
23260;SDS011;11799;47.740;-3.390;2023-04-25T06:48:40;9.27;;;3.75;;
23260;SDS011;11799;47.740;-3.390;2023-04-25T06:51:06;11.48;;;4.60;;
23260;SDS011;11799;47.740;-3.390;2023-04-25T06:53:33;11.63;;;4.50;;
23260;SDS011;11799;47.740;-3.390;2023-04-25T06:56:02;8.80;;;4.00;;
23260;SDS011;11799;47.740;-3.390;2023-04-25T06:58:48;9.23;;;4.18;;
23260;SDS011;11799;47.740;-3.390;2023-04-25T07:01:22;7.35;;;4.05;;
23260;SDS011;11799;47.740;-3.390;2023-04-25T07:03:48;5.93;;;3.45;;
23260;SDS011;11799;47.740;-3.390;2023-04-25T07:06:17;6.18;;;3.67;;
23260;SDS011;11799;47.740;-3.390;2023-04-25T07:08:42;11.25;;;3.85;;
23260;SDS011;11799;47.740;-3.390;2023-04-25T07:11:08;7.53;;;4.05;;
23260;SDS011;11799;47.740;-3.390;2023-04-25T07:13:35;9.40;;;4.10;;
23260;SDS011;11799;47.740;-3.390;2023-04-25T07:16:01;11.38;;;4.40;;
23260;SDS011;11799;47.740;-3.390;2023-04-25T07:18:29;11.13;;;5.10;;
23260;SDS011;11799;47.740;-3.390;2023-04-25T07:20:55;7.78;;;4.15;;
23260;SDS011;11799;47.740;-3.390;2023-04-25T07:23:21;10.32;;;4.40;;
23260;SDS011;11799;47.740;-3.390;2023-04-25T07:25:47;14.32;;;5.45;;
23260;SDS011;11799;47.740;-3.390;2023-04-25T07:28:17;13.13;;;4.70;;
23260;SDS011;11799;47.740;-3.390;2023-04-25T07:30:43;7.60;;;4.65;;
23260;SDS011;11799;47.740;-3.390;2023-04-25T07:33:08;8.48;;;4.47;;
23260;SDS011;11799;47.740;-3.390;2023-04-25T07:35:34;10.40;;;4.88;;
23260;SDS011;11799;47.740;-3.390;2023-04-25T07:38:01;6.65;;;4.13;;
23260;SDS011;11799;47.740;-3.390;2023-04-25T07:40:27;12.52;;;4.32;;
23260;SDS011;11799;47.740;-3.390;2023-04-25T07:42:58;7.20;;;4.10;;
23260;SDS011;11799;47.740;-3.390;2023-04-25T07:45:47;6.97;;;4.15;;
23260;SDS011;11799;47.740;-3.390;2023-04-25T07:48:17;7.00;;;4.10;;
23260;SDS011;11799;47.740;-3.390;2023-04-25T07:50:45;6.95;;;4.00;;
23260;SDS011;11799;47.740;-3.390;2023-04-25T07:53:10;9.13;;;4.22;;
23260;SDS011;11799;47.740;-3.390;2023-04-25T07:55:43;4.85;;;3.60;;
23260;SDS011;11799;47.740;-3.390;2023-04-25T07:58:16;7.78;;;4.05;;
23260;SDS011;11799;47.740;-3.390;2023-04-25T08:00:48;7.75;;;3.92;;
23260;SDS011;11799;47.740;-3.390;2023-04-25T08:03:43;6.68;;;3.53;;
23260;SDS011;11799;47.740;-3.390;2023-04-25T08:06:20;5.35;;;3.67;;
23260;SDS011;11799;47.740;-3.390;2023-04-25T08:09:03;10.38;;;3.58;;
23260;SDS011;11799;47.740;-3.390;2023-04-25T08:11:35;7.60;;;3.35;;
23260;SDS011;11799;47.740;-3.390;2023-04-25T08:14:01;7.97;;;3.40;;
23260;SDS011;11799;47.740;-3.390;2023-04-25T08:16:27;5.43;;;4.10;;
23260;SDS011;11799;47.740;-3.390;2023-04-25T08:18:53;5.72;;;2.95;;
23260;SDS011;11799;47.740;-3.390;2023-04-25T08:21:19;7.05;;;3.00;;
23260;SDS011;11799;47.740;-3.390;2023-04-25T08:23:45;8.52;;;3.50;;
23260;SDS011;11799;47.740;-3.390;2023-04-25T08:26:16;7.18;;;3.70;;
23260;SDS011;11799;47.740;-3.390;2023-04-25T08:28:42;4.82;;;2.88;;
23260;SDS011;11799;47.740;-3.390;2023-04-25T08:31:07;6.70;;;3.60;;
23260;SDS011;11799;47.740;-3.390;2023-04-25T08:33:43;4.45;;;2.60;;
23260;SDS011;11799;47.740;-3.390;2023-04-25T08:36:19;4.97;;;2.85;;
23260;SDS011;11799;47.740;-3.390;2023-04-25T08:38:45;9.85;;;3.17;;
23260;SDS011;11799;47.740;-3.390;2023-04-25T08:41:12;8.68;;;3.00;;
23260;SDS011;11799;47.740;-3.390;2023-04-25T08:43:39;5.97;;;3.30;;
23260;SDS011;11799;47.740;-3.390;2023-04-25T08:46:08;6.53;;;3.03;;
23260;SDS011;11799;47.740;-3.390;2023-04-25T08:48:55;6.70;;;2.70;;
23260;SDS011;11799;47.740;-3.390;2023-04-25T08:51:28;5.20;;;2.50;;
23260;SDS011;11799;47.740;-3.390;2023-04-25T08:54:08;8.40;;;2.70;;
23260;SDS011;11799;47.740;-3.390;2023-04-25T08:56:40;7.05;;;2.88;;
23260;SDS011;11799;47.740;-3.390;2023-04-25T08:59:09;3.90;;;2.40;;
23260;SDS011;11799;47.740;-3.390;2023-04-25T09:01:36;5.22;;;2.85;;
23260;SDS011;11799;47.740;-3.390;2023-04-25T09:04:02;8.32;;;2.72;;
23260;SDS011;11799;47.740;-3.390;2023-04-25T09:06:31;6.65;;;2.78;;
23260;SDS011;11799;47.740;-3.390;2023-04-25T09:09:01;6.32;;;2.60;;
23260;SDS011;11799;47.740;-3.390;2023-04-25T09:11:29;5.43;;;2.97;;
23260;SDS011;11799;47.740;-3.390;2023-04-25T09:14:12;4.72;;;2.70;;
23260;SDS011;11799;47.740;-3.390;2023-04-25T09:17:03;6.15;;;2.70;;
23260;SDS011;11799;47.740;-3.390;2023-04-25T09:20:05;5.97;;;2.53;;
23260;SDS011;11799;47.740;-3.390;2023-04-25T09:22:39;7.35;;;2.78;;
23260;SDS011;11799;47.740;-3.390;2023-04-25T09:25:11;7.00;;;3.20;;
23260;SDS011;11799;47.740;-3.390;2023-04-25T09:27:50;7.03;;;3.00;;
23260;SDS011;11799;47.740;-3.390;2023-04-25T09:30:30;5.90;;;2.60;;
23260;SDS011;11799;47.740;-3.390;2023-04-25T09:33:10;5.40;;;2.75;;
23260;SDS011;11799;47.740;-3.390;2023-04-25T09:35:38;5.53;;;2.70;;
23260;SDS011;11799;47.740;-3.390;2023-04-25T09:38:13;11.20;;;3.08;;
23260;SDS011;11799;47.740;-3.390;2023-04-25T09:41:06;5.60;;;2.80;;
23260;SDS011;11799;47.740;-3.390;2023-04-25T09:43:39;5.10;;;2.47;;
23260;SDS011;11799;47.740;-3.390;2023-04-25T09:46:09;4.85;;;2.70;;
23260;SDS011;11799;47.740;-3.390;2023-04-25T09:48:38;8.63;;;2.80;;
23260;SDS011;11799;47.740;-3.390;2023-04-25T09:51:11;4.30;;;2.70;;
23260;SDS011;11799;47.740;-3.390;2023-04-25T09:53:42;5.75;;;2.88;;
23260;SDS011;11799;47.740;-3.390;2023-04-25T09:56:29;4.32;;;2.60;;
23260;SDS011;11799;47.740;-3.390;2023-04-25T09:59:03;6.80;;;3.00;;
23260;SDS011;11799;47.740;-3.390;2023-04-25T10:01:32;6.82;;;2.80;;
23260;SDS011;11799;47.740;-3.390;2023-04-25T10:04:09;3.45;;;2.78;;
23260;SDS011;11799;47.740;-3.390;2023-04-25T10:06:44;6.97;;;3.10;;
23260;SDS011;11799;47.740;-3.390;2023-04-25T10:09:11;4.57;;;2.88;;
23260;SDS011;11799;47.740;-3.390;2023-04-25T10:11:38;6.22;;;2.95;;
23260;SDS011;11799;47.740;-3.390;2023-04-25T10:14:05;7.75;;;3.05;;
23260;SDS011;11799;47.740;-3.390;2023-04-25T10:16:31;6.53;;;2.90;;
23260;SDS011;11799;47.740;-3.390;2023-04-25T10:18:57;6.00;;;2.58;;
23260;SDS011;11799;47.740;-3.390;2023-04-25T10:21:23;6.05;;;2.75;;
23260;SDS011;11799;47.740;-3.390;2023-04-25T10:23:52;5.47;;;2.10;;
23260;SDS011;11799;47.740;-3.390;2023-04-25T10:26:18;7.45;;;2.40;;
23260;SDS011;11799;47.740;-3.390;2023-04-25T10:28:55;4.60;;;2.83;;
23260;SDS011;11799;47.740;-3.390;2023-04-25T10:31:24;5.20;;;2.50;;
23260;SDS011;11799;47.740;-3.390;2023-04-25T10:33:49;3.80;;;2.47;;
23260;SDS011;11799;47.740;-3.390;2023-04-25T10:36:18;5.40;;;2.70;;
23260;SDS011;11799;47.740;-3.390;2023-04-25T10:38:49;4.45;;;2.40;;
23260;SDS011;11799;47.740;-3.390;2023-04-25T10:41:17;6.82;;;2.50;;
23260;SDS011;11799;47.740;-3.390;2023-04-25T10:43:45;3.75;;;2.05;;
23260;SDS011;11799;47.740;-3.390;2023-04-25T10:46:22;3.80;;;2.40;;
23260;SDS011;11799;47.740;-3.390;2023-04-25T10:48:49;8.20;;;2.60;;
23260;SDS011;11799;47.740;-3.390;2023-04-25T10:53:45;5.53;;;2.30;;
23260;SDS011;11799;47.740;-3.390;2023-04-25T10:56:20;5.13;;;2.50;;
23260;SDS011;11799;47.740;-3.390;2023-04-25T11:01:53;12.68;;;2.90;;
23260;SDS011;11799;47.740;-3.390;2023-04-25T11:04:25;6.40;;;2.50;;
23260;SDS011;11799;47.740;-3.390;2023-04-25T11:09:25;5.25;;;2.53;;
23260;SDS011;11799;47.740;-3.390;2023-04-25T11:11:55;5.35;;;2.30;;
23260;SDS011;11799;47.740;-3.390;2023-04-25T11:14:22;4.63;;;2.22;;
23260;SDS011;11799;47.740;-3.390;2023-04-25T11:16:52;7.45;;;2.30;;
23260;SDS011;11799;47.740;-3.390;2023-04-25T11:19:20;3.53;;;2.17;;
23260;SDS011;11799;47.740;-3.390;2023-04-25T11:21:45;4.70;;;2.30;;
23260;SDS011;11799;47.740;-3.390;2023-04-25T11:24:11;4.35;;;2.33;;
23260;SDS011;11799;47.740;-3.390;2023-04-25T11:26:37;5.13;;;2.83;;
23260;SDS011;11799;47.740;-3.390;2023-04-25T11:29:02;5.85;;;2.58;;
23260;SDS011;11799;47.740;-3.390;2023-04-25T11:31:28;4.15;;;2.05;;
23260;SDS011;11799;47.740;-3.390;2023-04-25T11:33:58;5.47;;;2.28;;
23260;SDS011;11799;47.740;-3.390;2023-04-25T11:36:24;6.13;;;2.47;;
23260;SDS011;11799;47.740;-3.390;2023-04-25T11:38:51;5.00;;;2.17;;
23260;SDS011;11799;47.740;-3.390;2023-04-25T11:41:17;3.30;;;2.00;;
23260;SDS011;11799;47.740;-3.390;2023-04-25T11:43:44;4.55;;;1.90;;
23260;SDS011;11799;47.740;-3.390;2023-04-25T11:46:09;4.47;;;2.08;;
23260;SDS011;11799;47.740;-3.390;2023-04-25T11:48:37;4.32;;;1.85;;
23260;SDS011;11799;47.740;-3.390;2023-04-25T11:51:06;5.13;;;2.22;;
23260;SDS011;11799;47.740;-3.390;2023-04-25T11:53:31;4.47;;;1.95;;
23260;SDS011;11799;47.740;-3.390;2023-04-25T11:55:57;4.93;;;2.00;;
23260;SDS011;11799;47.740;-3.390;2023-04-25T11:58:22;5.07;;;2.15;;
23260;SDS011;11799;47.740;-3.390;2023-04-25T12:00:48;5.15;;;1.60;;
23260;SDS011;11799;47.740;-3.390;2023-04-25T12:03:13;7.57;;;1.98;;
23260;SDS011;11799;47.740;-3.390;2023-04-25T12:05:39;2.95;;;2.00;;
23260;SDS011;11799;47.740;-3.390;2023-04-25T12:08:14;3.53;;;1.90;;
23260;SDS011;11799;47.740;-3.390;2023-04-25T12:10:42;2.28;;;1.92;;
23260;SDS011;11799;47.740;-3.390;2023-04-25T12:13:20;6.28;;;2.40;;
23260;SDS011;11799;47.740;-3.390;2023-04-25T12:15:47;7.10;;;2.08;;
23260;SDS011;11799;47.740;-3.390;2023-04-25T12:18:13;6.43;;;2.30;;
23260;SDS011;11799;47.740;-3.390;2023-04-25T12:20:39;4.75;;;2.20;;
23260;SDS011;11799;47.740;-3.390;2023-04-25T12:23:07;4.30;;;2.20;;
23260;SDS011;11799;47.740;-3.390;2023-04-25T12:25:43;2.95;;;2.00;;
23260;SDS011;11799;47.740;-3.390;2023-04-25T12:28:14;3.85;;;2.38;;
23260;SDS011;11799;47.740;-3.390;2023-04-25T12:31:00;4.60;;;1.98;;
23260;SDS011;11799;47.740;-3.390;2023-04-25T12:33:35;5.50;;;2.65;;
23260;SDS011;11799;47.740;-3.390;2023-04-25T12:36:02;6.82;;;2.40;;
23260;SDS011;11799;47.740;-3.390;2023-04-25T12:38:40;5.00;;;2.20;;
23260;SDS011;11799;47.740;-3.390;2023-04-25T12:41:08;5.97;;;2.53;;
23260;SDS011;11799;47.740;-3.390;2023-04-25T12:43:33;5.60;;;2.53;;
23260;SDS011;11799;47.740;-3.390;2023-04-25T12:45:59;5.45;;;2.22;;
23260;SDS011;11799;47.740;-3.390;2023-04-25T12:48:25;4.93;;;2.30;;
23260;SDS011;11799;47.740;-3.390;2023-04-25T12:50:51;5.20;;;2.50;;
23260;SDS011;11799;47.740;-3.390;2023-04-25T12:53:18;6.05;;;2.33;;
23260;SDS011;11799;47.740;-3.390;2023-04-25T12:58:13;5.78;;;2.13;;
23260;SDS011;11799;47.740;-3.390;2023-04-25T13:00:44;4.18;;;2.22;;
23260;SDS011;11799;47.740;-3.390;2023-04-25T13:03:10;5.00;;;2.50;;
23260;SDS011;11799;47.740;-3.390;2023-04-25T13:05:37;5.75;;;2.17;;
23260;SDS011;11799;47.740;-3.390;2023-04-25T13:08:03;9.70;;;2.65;;
23260;SDS011;11799;47.740;-3.390;2023-04-25T13:10:29;3.17;;;2.08;;
23260;SDS011;11799;47.740;-3.390;2023-04-25T13:12:55;3.05;;;1.90;;
23260;SDS011;11799;47.740;-3.390;2023-04-25T13:15:20;6.32;;;2.17;;
23260;SDS011;11799;47.740;-3.390;2023-04-25T13:17:47;4.85;;;1.90;;
23260;SDS011;11799;47.740;-3.390;2023-04-25T13:20:12;4.28;;;2.03;;
23260;SDS011;11799;47.740;-3.390;2023-04-25T13:22:39;3.50;;;2.10;;
23260;SDS011;11799;47.740;-3.390;2023-04-25T13:25:05;6.50;;;2.70;;
23260;SDS011;11799;47.740;-3.390;2023-04-25T13:27:33;6.07;;;2.50;;
23260;SDS011;11799;47.740;-3.390;2023-04-25T13:30:01;6.35;;;2.17;;
23260;SDS011;11799;47.740;-3.390;2023-04-25T13:32:30;4.75;;;2.50;;
23260;SDS011;11799;47.740;-3.390;2023-04-25T13:34:55;6.63;;;2.50;;
23260;SDS011;11799;47.740;-3.390;2023-04-25T13:37:21;6.85;;;2.30;;
23260;SDS011;11799;47.740;-3.390;2023-04-25T13:39:49;8.25;;;3.45;;
23260;SDS011;11799;47.740;-3.390;2023-04-25T13:42:15;9.07;;;3.10;;
23260;SDS011;11799;47.740;-3.390;2023-04-25T13:44:41;5.35;;;2.80;;
23260;SDS011;11799;47.740;-3.390;2023-04-25T13:47:06;6.53;;;2.80;;
23260;SDS011;11799;47.740;-3.390;2023-04-25T13:49:32;4.88;;;2.78;;
23260;SDS011;11799;47.740;-3.390;2023-04-25T13:51:57;7.07;;;2.65;;
23260;SDS011;11799;47.740;-3.390;2023-04-25T13:54:23;8.68;;;2.97;;
23260;SDS011;11799;47.740;-3.390;2023-04-25T13:56:48;5.07;;;2.83;;
23260;SDS011;11799;47.740;-3.390;2023-04-25T13:59:14;5.20;;;2.90;;
23260;SDS011;11799;47.740;-3.390;2023-04-25T14:01:40;6.10;;;2.80;;
23260;SDS011;11799;47.740;-3.390;2023-04-25T14:04:05;10.40;;;2.83;;
23260;SDS011;11799;47.740;-3.390;2023-04-25T14:06:31;7.00;;;2.80;;
23260;SDS011;11799;47.740;-3.390;2023-04-25T14:08:58;6.60;;;2.80;;
23260;SDS011;11799;47.740;-3.390;2023-04-25T14:11:25;5.10;;;2.80;;
23260;SDS011;11799;47.740;-3.390;2023-04-25T14:13:51;6.85;;;2.88;;
23260;SDS011;11799;47.740;-3.390;2023-04-25T14:16:16;5.90;;;2.63;;
23260;SDS011;11799;47.740;-3.390;2023-04-25T14:18:42;7.68;;;2.80;;
23260;SDS011;11799;47.740;-3.390;2023-04-25T14:21:07;5.65;;;2.83;;
23260;SDS011;11799;47.740;-3.390;2023-04-25T14:23:33;6.90;;;2.67;;
23260;SDS011;11799;47.740;-3.390;2023-04-25T14:25:58;7.22;;;2.70;;
23260;SDS011;11799;47.740;-3.390;2023-04-25T14:28:24;5.43;;;2.80;;
23260;SDS011;11799;47.740;-3.390;2023-04-25T14:30:49;8.93;;;2.75;;
23260;SDS011;11799;47.740;-3.390;2023-04-25T14:33:15;7.90;;;2.90;;
23260;SDS011;11799;47.740;-3.390;2023-04-25T14:35:40;7.00;;;3.20;;
23260;SDS011;11799;47.740;-3.390;2023-04-25T14:38:06;9.30;;;3.20;;
23260;SDS011;11799;47.740;-3.390;2023-04-25T14:40:32;7.78;;;3.38;;
23260;SDS011;11799;47.740;-3.390;2023-04-25T14:42:58;12.38;;;3.45;;
23260;SDS011;11799;47.740;-3.390;2023-04-25T14:45:24;6.55;;;3.35;;
23260;SDS011;11799;47.740;-3.390;2023-04-25T14:47:49;5.95;;;3.22;;
23260;SDS011;11799;47.740;-3.390;2023-04-25T14:50:15;8.30;;;3.22;;
23260;SDS011;11799;47.740;-3.390;2023-04-25T14:52:41;8.68;;;3.30;;
23260;SDS011;11799;47.740;-3.390;2023-04-25T14:55:06;8.15;;;3.35;;
23260;SDS011;11799;47.740;-3.390;2023-04-25T14:57:34;8.77;;;2.90;;